createdAt,value
2018-12-24T00:01:24.601Z,0.80
2018-12-24T00:03:52.486Z,0.90
2018-12-24T00:06:19.923Z,0.73
2018-12-24T00:08:47.402Z,0.83
2018-12-24T00:11:14.858Z,0.90
2018-12-24T00:13:42.330Z,0.70
2018-12-24T00:16:10.063Z,0.70
2018-12-24T00:18:38.547Z,0.70
2018-12-24T00:21:06.820Z,0.70
2018-12-24T00:23:34.300Z,0.80
2018-12-24T00:26:02.102Z,0.60
2018-12-24T00:28:29.912Z,0.70
2018-12-24T00:30:57.783Z,0.80
2018-12-24T00:33:25.374Z,0.70
2018-12-24T00:35:53.226Z,0.80
2018-12-24T00:38:21.001Z,0.60
2018-12-24T00:40:48.540Z,0.73
2018-12-24T00:43:16.078Z,0.60
2018-12-24T00:45:44.706Z,0.70
2018-12-24T00:48:12.264Z,0.60
2018-12-24T00:50:39.836Z,0.90
2018-12-24T00:53:07.722Z,1.13
2018-12-24T00:55:35.628Z,1.10
2018-12-24T00:58:03.183Z,1.10
2018-12-24T01:00:30.744Z,1.10
2018-12-24T01:02:58.930Z,1.00
2018-12-24T01:05:26.444Z,1.40
2018-12-24T01:07:54.242Z,1.00
2018-12-24T01:10:22.462Z,2.00
2018-12-24T01:12:49.983Z,1.23
2018-12-24T01:15:17.470Z,1.20
2018-12-24T01:17:45.103Z,1.30
2018-12-24T01:20:13.034Z,1.10
2018-12-24T01:22:40.528Z,1.30
2018-12-24T01:25:08.162Z,1.10
2018-12-24T01:27:35.946Z,1.73
2018-12-24T01:30:03.666Z,1.00
2018-12-24T01:32:32.066Z,1.00
2018-12-24T01:34:59.610Z,0.80
2018-12-24T01:37:27.350Z,0.73
2018-12-24T01:39:55.414Z,1.10
2018-12-24T01:42:23.250Z,0.70
2018-12-24T01:44:51.084Z,1.40
2018-12-24T01:47:18.806Z,0.90
2018-12-24T01:49:46.297Z,0.60
2018-12-24T01:52:14.095Z,0.60
2018-12-24T01:54:41.609Z,0.60
2018-12-24T01:57:09.427Z,0.60
2018-12-24T01:59:37.837Z,0.90
2018-12-24T02:02:05.436Z,0.90
2018-12-24T02:04:33.247Z,0.60
2018-12-24T02:07:00.952Z,0.80
2018-12-24T02:09:28.549Z,0.73
2018-12-24T02:11:56.114Z,0.90
2018-12-24T02:14:23.708Z,0.80
2018-12-24T02:16:52.227Z,0.70
2018-12-24T02:19:20.147Z,0.80
2018-12-24T02:21:47.590Z,1.00
2018-12-24T02:24:15.404Z,1.10
2018-12-24T02:26:43.233Z,1.43
2018-12-24T02:29:10.811Z,1.30
2018-12-24T02:31:38.689Z,1.10
2018-12-24T02:34:06.346Z,1.37
2018-12-24T02:36:33.918Z,0.93
2018-12-24T02:39:01.425Z,0.90
2018-12-24T02:41:28.889Z,1.10
2018-12-24T02:43:56.951Z,0.60
2018-12-24T02:46:24.462Z,0.60
2018-12-24T02:48:51.948Z,0.60
2018-12-24T02:51:19.812Z,0.60
2018-12-24T02:53:47.383Z,0.60
2018-12-24T02:56:15.183Z,0.60
2018-12-24T02:58:43.187Z,0.70
2018-12-24T03:01:11.141Z,0.70
2018-12-24T03:03:39.136Z,0.70
2018-12-24T03:06:07.038Z,0.60
2018-12-24T03:08:34.654Z,0.60
2018-12-24T03:11:02.583Z,0.67
2018-12-24T03:13:30.335Z,0.60
2018-12-24T03:15:58.032Z,1.00
2018-12-24T03:18:25.617Z,1.63
2018-12-24T03:20:53.202Z,1.20
2018-12-24T03:23:21.399Z,1.53
2018-12-24T03:25:49.010Z,1.10
2018-12-24T03:28:16.517Z,0.90
2018-12-24T03:30:44.745Z,1.50
2018-12-24T03:33:12.604Z,1.00
2018-12-24T03:35:40.503Z,1.43
2018-12-24T03:38:08.034Z,1.43
2018-12-24T03:40:35.661Z,1.00
2018-12-24T03:43:12.176Z,0.67
2018-12-24T03:45:32.596Z,0.80
2018-12-24T03:48:00.520Z,0.80
2018-12-24T03:50:28.371Z,0.90
2018-12-24T03:52:56.355Z,0.70
2018-12-24T03:55:24.183Z,0.90
2018-12-24T03:57:52.341Z,0.97
2018-12-24T04:00:19.994Z,0.70
2018-12-24T04:02:48.187Z,0.70
2018-12-24T04:05:15.800Z,0.90
2018-12-24T04:07:43.423Z,0.77
2018-12-24T04:10:31.012Z,0.70
2018-12-24T04:13:01.128Z,0.60
2018-12-24T04:15:29.003Z,0.70
2018-12-24T04:17:56.935Z,0.70
2018-12-24T04:20:25.091Z,0.80
2018-12-24T04:22:52.686Z,0.70
2018-12-24T04:25:20.844Z,0.70
2018-12-24T04:27:48.805Z,0.70
2018-12-24T04:30:16.359Z,1.00
2018-12-24T04:32:44.164Z,0.87
2018-12-24T04:35:11.914Z,1.00
2018-12-24T04:37:39.475Z,0.90
2018-12-24T04:40:07.502Z,1.00
2018-12-24T04:42:35.015Z,0.90
2018-12-24T04:45:02.603Z,0.73
2018-12-24T04:47:30.565Z,1.00
2018-12-24T04:49:58.542Z,1.80
2018-12-24T04:52:26.330Z,1.20
2018-12-24T04:54:54.172Z,1.50
2018-12-24T04:57:21.654Z,1.70
2018-12-24T04:59:49.091Z,1.63
2018-12-24T05:02:16.699Z,1.37
2018-12-24T05:04:44.587Z,1.30
2018-12-24T05:07:12.762Z,1.50
2018-12-24T05:09:40.585Z,1.60
2018-12-24T05:12:08.098Z,1.40
2018-12-24T05:14:35.572Z,1.10
2018-12-24T05:17:03.362Z,1.83
2018-12-24T05:19:31.154Z,1.70
2018-12-24T05:21:58.983Z,1.80
2018-12-24T05:24:26.434Z,1.67
2018-12-24T05:26:54.837Z,1.50
2018-12-24T05:29:22.454Z,1.43
2018-12-24T05:31:50.237Z,1.53
2018-12-24T05:34:18.330Z,0.80
2018-12-24T05:36:45.791Z,0.97
2018-12-24T05:39:13.778Z,0.83
2018-12-24T05:41:41.697Z,0.70
2018-12-24T05:44:09.802Z,0.90
2018-12-24T05:46:37.314Z,0.90
2018-12-24T05:49:04.873Z,0.80
2018-12-24T05:51:32.802Z,1.00
2018-12-24T05:54:00.316Z,0.80
2018-12-24T05:56:28.166Z,0.83
2018-12-24T05:58:55.738Z,0.80
2018-12-24T06:01:23.330Z,0.70
2018-12-24T06:03:50.903Z,0.70
2018-12-24T06:06:19.131Z,0.73
2018-12-24T06:08:46.642Z,0.70
2018-12-24T06:11:14.143Z,1.00
2018-12-24T06:13:41.627Z,0.90
2018-12-24T06:16:09.122Z,0.80
2018-12-24T06:18:38.674Z,0.80
2018-12-24T06:21:06.282Z,0.80
2018-12-24T06:23:33.774Z,0.77
2018-12-24T06:26:01.907Z,0.80
2018-12-24T06:28:29.504Z,0.90
2018-12-24T06:30:57.404Z,0.80
2018-12-24T06:33:24.906Z,1.07
2018-12-24T06:35:52.698Z,0.87
2018-12-24T06:38:20.187Z,0.87
2018-12-24T06:40:47.611Z,1.27
2018-12-24T06:43:15.587Z,1.10
2018-12-24T06:45:43.541Z,1.00
2018-12-24T06:48:11.286Z,1.03
2018-12-24T06:50:38.758Z,1.20
2018-12-24T06:53:06.660Z,1.03
2018-12-24T06:55:34.215Z,1.00
2018-12-24T06:58:02.340Z,1.00
2018-12-24T07:00:30.178Z,1.30
2018-12-24T07:02:57.986Z,1.83
2018-12-24T07:05:25.436Z,2.43
2018-12-24T07:07:53.575Z,1.93
2018-12-24T07:10:21.370Z,1.70
2018-12-24T07:12:48.833Z,2.67
2018-12-24T07:15:16.351Z,1.63
2018-12-24T07:17:43.949Z,1.30
2018-12-24T07:20:12.584Z,1.73
2018-12-24T07:22:40.351Z,1.57
2018-12-24T07:25:07.927Z,1.53
2018-12-24T07:27:36.981Z,1.30
2018-12-24T07:30:04.636Z,1.43
2018-12-24T07:32:32.407Z,2.03
2018-12-24T07:35:00.046Z,2.13
2018-12-24T07:37:30.532Z,2.40
2018-12-24T07:39:58.051Z,2.60
2018-12-24T07:42:26.091Z,2.00
2018-12-24T07:44:58.208Z,2.47
2018-12-24T07:47:26.062Z,2.97
2018-12-24T07:49:53.914Z,2.80
2018-12-24T07:52:21.590Z,2.80
2018-12-24T07:54:49.494Z,2.60
2018-12-24T07:57:17.163Z,2.80
2018-12-24T07:59:44.634Z,2.90
2018-12-24T08:02:12.232Z,4.20
2018-12-24T08:04:39.810Z,3.23
2018-12-24T08:07:07.594Z,4.07
2018-12-24T08:09:35.126Z,4.00
2018-12-24T08:12:02.662Z,4.90
2018-12-24T08:14:33.242Z,3.77
2018-12-24T08:16:59.572Z,3.97
2018-12-24T08:19:27.814Z,4.17
2018-12-24T08:21:55.578Z,3.50
2018-12-24T08:24:23.386Z,5.20
2018-12-24T08:26:53.620Z,4.63
2018-12-24T08:29:20.751Z,5.27
2018-12-24T08:31:48.227Z,4.17
2018-12-24T08:34:15.827Z,3.40
2018-12-24T08:36:43.355Z,4.00
2018-12-24T08:39:11.511Z,3.77
2018-12-24T08:41:39.503Z,3.97
2018-12-24T08:44:07.549Z,3.80
2018-12-24T08:46:35.078Z,4.50
2018-12-24T08:49:02.595Z,4.63
2018-12-24T08:51:30.046Z,5.37
2018-12-24T08:53:57.809Z,4.93
2018-12-24T08:56:25.405Z,5.50
2018-12-24T08:58:52.942Z,5.03
2018-12-24T09:01:21.403Z,4.57
2018-12-24T09:03:49.451Z,6.20
2018-12-24T09:06:17.310Z,5.93
2018-12-24T09:08:45.419Z,5.97
2018-12-24T09:11:13.258Z,5.60
2018-12-24T09:13:40.822Z,5.90
2018-12-24T09:16:08.314Z,6.07
2018-12-24T09:18:35.900Z,5.50
2018-12-24T09:21:03.381Z,6.30
2018-12-24T09:23:31.290Z,6.37
2018-12-24T09:25:59.440Z,6.27
2018-12-24T09:28:27.093Z,6.20
2018-12-24T09:30:54.679Z,5.90
2018-12-24T09:33:22.384Z,6.40
2018-12-24T09:35:50.291Z,6.60
2018-12-24T09:38:18.522Z,7.10
2018-12-24T09:40:46.370Z,5.93
2018-12-24T09:43:14.009Z,6.43
2018-12-24T09:45:41.596Z,7.47
2018-12-24T09:48:09.093Z,7.20
2018-12-24T09:50:36.662Z,7.50
2018-12-24T09:53:04.498Z,7.60
2018-12-24T09:55:32.023Z,8.20
2018-12-24T09:57:59.676Z,7.30
2018-12-24T10:00:27.376Z,9.57
2018-12-24T10:03:19.578Z,8.07
2018-12-24T10:05:47.139Z,6.53
2018-12-24T10:08:17.992Z,6.90
2018-12-24T10:10:45.961Z,7.50
2018-12-24T10:13:14.129Z,6.73
2018-12-24T10:15:41.687Z,6.60
2018-12-24T10:18:09.269Z,5.77
2018-12-24T10:20:37.201Z,5.53
2018-12-24T10:23:05.083Z,5.13
2018-12-24T10:25:32.886Z,5.67
2018-12-24T10:28:01.094Z,5.23
2018-12-24T10:30:28.919Z,3.80
2018-12-24T10:32:56.446Z,3.80
2018-12-24T10:35:24.690Z,3.43
2018-12-24T10:37:52.928Z,3.97
2018-12-24T10:40:20.619Z,4.30
2018-12-24T10:42:48.584Z,4.30
2018-12-24T10:45:17.005Z,4.07
2018-12-24T10:47:44.912Z,3.70
2018-12-24T10:50:12.492Z,2.90
2018-12-24T10:52:40.041Z,3.67
2018-12-24T10:55:07.887Z,3.57
2018-12-24T10:57:35.638Z,2.37
2018-12-24T11:00:03.618Z,2.83
2018-12-24T11:02:31.446Z,2.87
2018-12-24T11:04:59.210Z,2.73
2018-12-24T11:07:26.954Z,2.70
2018-12-24T11:09:54.792Z,2.70
2018-12-24T11:12:22.686Z,3.00
2018-12-24T11:14:50.594Z,2.37
2018-12-24T11:17:18.436Z,3.57
2018-12-24T11:19:45.982Z,3.10
2018-12-24T11:22:13.522Z,4.33
2018-12-24T11:24:41.283Z,5.00
2018-12-24T11:27:09.438Z,3.93
2018-12-24T11:29:48.521Z,3.77
2018-12-24T11:32:16.723Z,3.53
2018-12-24T11:34:45.051Z,3.00
2018-12-24T11:37:13.118Z,3.70
2018-12-24T11:39:41.908Z,3.60
2018-12-24T11:42:09.498Z,4.10
2018-12-24T11:44:37.124Z,3.60
2018-12-24T11:47:05.854Z,3.83
2018-12-24T11:49:33.419Z,3.57
2018-12-24T11:52:01.362Z,3.60
2018-12-24T11:54:28.906Z,3.43
2018-12-24T11:56:57.318Z,3.33
2018-12-24T11:59:25.045Z,3.30
2018-12-24T12:01:53.091Z,3.20
2018-12-24T12:04:20.929Z,3.43
2018-12-24T12:06:48.929Z,3.90
2018-12-24T12:09:17.083Z,4.60
2018-12-24T12:11:45.058Z,4.50
2018-12-24T12:14:12.838Z,10.80
2018-12-24T12:16:40.628Z,5.90
2018-12-24T12:19:08.551Z,4.17
2018-12-24T12:21:36.718Z,2.83
2018-12-24T12:24:04.578Z,2.60
2018-12-24T12:26:32.187Z,3.20
2018-12-24T12:28:59.955Z,3.30
2018-12-24T12:31:27.864Z,4.00
2018-12-24T12:33:56.160Z,3.30
2018-12-24T12:36:23.962Z,3.20
2018-12-24T12:38:53.051Z,3.57
2018-12-24T12:41:21.256Z,3.40
2018-12-24T12:43:49.227Z,4.37
2018-12-24T12:46:16.760Z,3.40
2018-12-24T12:48:44.819Z,3.27
2018-12-24T12:51:12.806Z,2.90
2018-12-24T12:53:40.795Z,2.83
2018-12-24T12:56:09.032Z,2.50
2018-12-24T12:58:36.874Z,2.70
2018-12-24T13:01:04.722Z,3.07
2018-12-24T13:03:32.342Z,2.10
2018-12-24T13:06:00.462Z,2.23
2018-12-24T13:08:28.955Z,2.97
2018-12-24T13:10:56.671Z,2.73
2018-12-24T13:13:25.027Z,3.70
2018-12-24T13:15:59.489Z,2.90
2018-12-24T13:18:22.732Z,3.20
2018-12-24T13:20:50.263Z,2.30
2018-12-24T13:23:18.029Z,2.40
2018-12-24T13:25:46.079Z,2.93
2018-12-24T13:28:14.007Z,3.23
2018-12-24T13:30:41.934Z,2.77
2018-12-24T13:33:10.265Z,3.57
2018-12-24T13:35:37.913Z,3.93
2018-12-24T13:38:06.481Z,4.43
2018-12-24T13:40:35.014Z,3.70
2018-12-24T13:43:03.127Z,3.30
2018-12-24T13:45:30.950Z,3.10
2018-12-24T13:47:58.794Z,3.60
2018-12-24T13:50:26.335Z,2.70
2018-12-24T13:52:53.858Z,1.93
2018-12-24T13:55:22.001Z,1.80
2018-12-24T13:57:49.570Z,1.67
2018-12-24T14:00:17.101Z,2.17
2018-12-24T14:02:44.666Z,2.27
2018-12-24T14:05:12.438Z,1.90
2018-12-24T14:07:39.935Z,1.77
2018-12-24T14:10:07.422Z,2.43
2018-12-24T14:12:35.270Z,2.23
2018-12-24T14:15:03.057Z,2.23
2018-12-24T14:17:31.004Z,2.27
2018-12-24T14:19:58.543Z,3.13
2018-12-24T14:22:26.738Z,2.80
2018-12-24T14:24:54.246Z,3.60
2018-12-24T14:27:21.858Z,2.80
2018-12-24T14:29:49.698Z,3.50
2018-12-24T14:32:17.166Z,3.07
2018-12-24T14:34:45.018Z,2.80
2018-12-24T14:37:12.790Z,3.70
2018-12-24T14:39:40.575Z,3.90
2018-12-24T14:42:08.170Z,4.23
2018-12-24T14:44:35.738Z,3.10
2018-12-24T14:47:03.932Z,3.60
2018-12-24T14:49:31.648Z,3.10
2018-12-24T14:51:59.506Z,4.10
2018-12-24T14:54:27.387Z,3.10
2018-12-24T14:56:55.334Z,2.93
2018-12-24T14:59:23.126Z,3.20
2018-12-24T15:01:50.675Z,3.20
2018-12-24T15:04:21.898Z,3.10
2018-12-24T15:06:50.051Z,3.70
2018-12-24T15:09:17.835Z,4.40
2018-12-24T15:11:45.402Z,3.67
2018-12-24T15:14:13.179Z,4.03
2018-12-24T15:16:41.045Z,3.43
2018-12-24T15:19:08.521Z,4.33
2018-12-24T15:21:36.366Z,4.00
2018-12-24T15:24:04.626Z,4.23
2018-12-24T15:26:32.243Z,4.60
2018-12-24T15:29:01.387Z,5.90
2018-12-24T15:31:29.630Z,5.23
2018-12-24T15:33:57.710Z,6.73
2018-12-24T15:36:25.578Z,6.90
2018-12-24T15:38:53.186Z,6.60
2018-12-24T15:41:21.209Z,5.80
2018-12-24T15:43:48.915Z,5.73
2018-12-24T15:46:17.262Z,6.53
2018-12-24T15:48:44.851Z,7.20
2018-12-24T15:51:12.950Z,7.47
2018-12-24T15:53:41.028Z,6.70
2018-12-24T15:56:08.590Z,4.77
2018-12-24T15:58:36.102Z,5.37
2018-12-24T16:01:03.686Z,5.37
2018-12-24T16:03:36.834Z,6.47
2018-12-24T16:06:01.842Z,5.70
2018-12-24T16:08:30.035Z,4.07
2018-12-24T16:10:57.910Z,3.83
2018-12-24T16:13:25.830Z,4.37
2018-12-24T16:15:53.401Z,3.60
2018-12-24T16:18:21.837Z,8.97
2018-12-24T16:20:49.293Z,3.23
2018-12-24T16:23:17.260Z,3.20
2018-12-24T16:25:45.126Z,3.40
2018-12-24T16:28:12.617Z,3.00
2018-12-24T16:30:40.878Z,2.97
2018-12-24T16:33:09.035Z,4.00
2018-12-24T16:35:36.890Z,3.13
2018-12-24T16:38:04.800Z,2.40
2018-12-24T16:40:32.326Z,3.20
2018-12-24T16:42:59.904Z,3.43
2018-12-24T16:45:27.554Z,3.30
2018-12-24T16:47:55.322Z,3.37
2018-12-24T16:50:23.190Z,4.07
2018-12-24T16:52:51.343Z,3.60
2018-12-24T16:55:19.363Z,3.23
2018-12-24T16:57:46.852Z,3.47
2018-12-24T17:00:14.987Z,4.00
2018-12-24T17:02:42.576Z,2.70
2018-12-24T17:05:10.830Z,3.40
2018-12-24T17:07:39.049Z,3.50
2018-12-24T17:10:07.142Z,3.60
2018-12-24T17:12:34.942Z,3.20
2018-12-24T17:15:02.723Z,3.20
2018-12-24T17:17:30.608Z,2.93
2018-12-24T17:19:58.130Z,2.97
2018-12-24T17:22:25.861Z,2.47
2018-12-24T17:24:53.521Z,2.67
2018-12-24T17:27:21.169Z,2.33
2018-12-24T17:29:49.125Z,2.50
2018-12-24T17:32:16.919Z,2.47
2018-12-24T17:34:45.378Z,3.17
2018-12-24T17:37:13.166Z,2.70
2018-12-24T17:39:40.698Z,3.27
2018-12-24T17:42:08.574Z,3.13
2018-12-24T17:44:36.399Z,2.70
2018-12-24T17:47:04.219Z,3.10
2018-12-24T17:49:33.465Z,3.13
2018-12-24T17:52:01.312Z,2.77
2018-12-24T17:54:29.198Z,2.53
2018-12-24T17:56:56.951Z,3.17
2018-12-24T17:59:24.774Z,3.60
2018-12-24T18:01:52.927Z,4.17
2018-12-24T18:04:20.512Z,3.60
2018-12-24T18:06:48.717Z,3.37
2018-12-24T18:09:16.650Z,3.30
2018-12-24T18:11:45.346Z,4.80
2018-12-24T18:14:12.878Z,3.87
2018-12-24T18:16:40.414Z,4.40
2018-12-24T18:19:08.206Z,3.33
2018-12-24T18:21:36.719Z,3.90
2018-12-24T18:24:04.652Z,3.90
2018-12-24T18:26:32.410Z,4.17
2018-12-24T18:29:00.602Z,5.03
2018-12-24T18:31:28.731Z,4.53
2018-12-24T18:33:56.802Z,4.70
2018-12-24T18:36:24.486Z,4.57
2018-12-24T18:38:52.119Z,3.13
2018-12-24T18:41:19.673Z,4.13
2018-12-24T18:43:48.310Z,4.80
2018-12-24T18:46:16.549Z,4.77
2018-12-24T18:48:44.974Z,4.97
2018-12-24T18:51:12.556Z,5.27
2018-12-24T18:53:40.499Z,5.80
2018-12-24T18:56:08.078Z,5.30
2018-12-24T18:58:36.202Z,5.70
2018-12-24T19:01:03.679Z,4.97
2018-12-24T19:03:31.492Z,7.00
2018-12-24T19:06:00.777Z,7.93
2018-12-24T19:08:28.633Z,7.50
2018-12-24T19:10:57.114Z,6.30
2018-12-24T19:13:24.934Z,5.80
2018-12-24T19:15:53.016Z,4.57
2018-12-24T19:18:21.042Z,4.37
2018-12-24T19:20:49.366Z,5.60
2018-12-24T19:23:18.280Z,5.67
2018-12-24T19:25:47.111Z,7.07
2018-12-24T19:28:14.779Z,5.40
2018-12-24T19:30:42.607Z,5.57
2018-12-24T19:33:11.230Z,5.20
2018-12-24T19:35:38.840Z,4.67
2018-12-24T19:38:06.686Z,4.10
2018-12-24T19:40:34.630Z,3.40
2018-12-24T19:43:02.469Z,3.67
2018-12-24T19:45:30.555Z,3.07
2018-12-24T19:47:59.075Z,4.00
2018-12-24T19:50:26.914Z,3.40
2018-12-24T19:52:54.752Z,3.33
2018-12-24T19:55:22.638Z,3.97
2018-12-24T19:57:50.390Z,3.13
2018-12-24T20:00:17.955Z,3.10
2018-12-24T20:02:45.775Z,3.50
2018-12-24T20:05:13.283Z,3.80
2018-12-24T20:07:41.022Z,3.93
2018-12-24T20:10:09.062Z,4.83
2018-12-24T20:12:36.932Z,4.30
2018-12-24T20:15:04.931Z,4.67
2018-12-24T20:17:32.443Z,3.60
2018-12-24T20:19:59.973Z,4.40
2018-12-24T20:22:27.528Z,4.33
2018-12-24T20:24:55.692Z,3.93
2018-12-24T20:27:23.302Z,4.80
2018-12-24T20:29:51.134Z,3.90
2018-12-24T20:32:18.638Z,4.40
2018-12-24T20:34:46.471Z,5.37
2018-12-24T20:37:14.320Z,6.37
2018-12-24T20:39:42.023Z,7.40
2018-12-24T20:42:09.800Z,6.80
2018-12-24T20:44:37.914Z,6.53
2018-12-24T20:47:05.835Z,5.63
2018-12-24T20:49:33.379Z,7.03
2018-12-24T20:52:01.315Z,7.00
2018-12-24T20:54:29.102Z,6.23
2018-12-24T20:56:56.587Z,6.07
2018-12-24T20:59:24.367Z,4.83
2018-12-24T21:01:51.846Z,4.97
2018-12-24T21:04:20.091Z,4.37
2018-12-24T21:06:47.947Z,6.40
2018-12-24T21:09:16.150Z,5.07
2018-12-24T21:11:43.752Z,4.97
2018-12-24T21:14:12.213Z,5.50
2018-12-24T21:16:39.865Z,5.90
2018-12-24T21:19:07.663Z,6.20
2018-12-24T21:21:35.606Z,5.43
2018-12-24T21:24:03.062Z,7.50
2018-12-24T21:26:30.847Z,9.03
2018-12-24T21:28:58.334Z,8.17
2018-12-24T21:31:25.863Z,7.27
2018-12-24T21:33:53.755Z,7.23
2018-12-24T21:36:21.247Z,5.30
2018-12-24T21:38:49.480Z,5.30
2018-12-24T21:41:16.931Z,4.90
2018-12-24T21:43:45.017Z,5.57
2018-12-24T21:46:12.546Z,5.97
2018-12-24T21:48:40.318Z,6.33
2018-12-24T21:51:07.887Z,6.20
2018-12-24T21:53:35.487Z,7.00
2018-12-24T21:56:02.960Z,5.97
2018-12-24T21:58:30.623Z,6.53
2018-12-24T22:00:58.222Z,6.37
2018-12-24T22:03:26.294Z,4.83
2018-12-24T22:05:54.370Z,5.97
2018-12-24T22:08:22.381Z,7.50
2018-12-24T22:10:49.896Z,6.60
2018-12-24T22:13:17.861Z,6.47
2018-12-24T22:15:45.686Z,4.70
2018-12-24T22:18:13.198Z,4.87
2018-12-24T22:20:40.747Z,5.43
2018-12-24T22:23:08.369Z,5.10
2018-12-24T22:25:35.882Z,4.90
2018-12-24T22:28:03.390Z,5.40
2018-12-24T22:30:31.431Z,5.40
2018-12-24T22:32:58.944Z,4.83
2018-12-24T22:35:26.826Z,5.40
2018-12-24T22:37:55.307Z,5.70
2018-12-24T22:40:23.148Z,5.43
2018-12-24T22:42:50.694Z,5.53
2018-12-24T22:45:18.196Z,5.60
2018-12-24T22:47:45.679Z,6.27
2018-12-24T22:50:13.138Z,8.33
2018-12-24T22:52:40.754Z,6.13
2018-12-24T22:55:08.207Z,5.63
2018-12-24T22:57:36.297Z,7.13
2018-12-24T23:00:07.159Z,6.47
2018-12-24T23:02:35.156Z,5.97
2018-12-24T23:05:02.718Z,6.73
2018-12-24T23:07:30.949Z,6.23
2018-12-24T23:09:58.817Z,5.60
2018-12-24T23:12:26.394Z,6.23
2018-12-24T23:14:54.256Z,6.40
2018-12-24T23:17:21.882Z,6.90
2018-12-24T23:19:49.822Z,5.50
2018-12-24T23:22:17.380Z,6.20
2018-12-24T23:24:45.430Z,5.80
2018-12-24T23:27:13.319Z,5.90
2018-12-24T23:29:41.080Z,6.13
2018-12-24T23:32:08.966Z,4.80
2018-12-24T23:34:36.966Z,6.00
2018-12-24T23:37:04.544Z,5.97
2018-12-24T23:39:32.025Z,6.47
2018-12-24T23:41:59.805Z,5.80
2018-12-24T23:44:28.453Z,7.00
2018-12-24T23:46:56.311Z,6.67
2018-12-24T23:49:24.062Z,6.67
2018-12-24T23:51:51.850Z,6.87
2018-12-24T23:54:19.709Z,6.80
2018-12-24T23:56:47.297Z,7.53
2018-12-24T23:59:14.914Z,5.80
